Yidu, China
Current Conditions -  °F | °C
As of 3:00 AM on Monday 24 Nov 2014 (Local Time) from ZSJN Reporting Station
Haze Haze  
Wind Chill: 43°   Ceiling: Unl
Heat Index: 43°   Visibility: 0.93mi
Dew Point: 37°   Wind: 2mph
Humidity: 81%   Direction: NA
Pressure: 30.27"   Gusts: NA
Location:  36.68°N, 118.47°E
Report Text: ZSJN 231900Z VRB01MPS 1500 BR NSC 06/03 Q1025 NOSIG
Loading
Personal Weather Stations






























Interactive Weather Map New forecast layout! Learn more

10-Day Weather Forecast

Advertisements
Track Severe Weather on mobile